sensor_id;sensor_type;location;lat;lon;timestamp;P1;durP1;ratioP1;P2;durP2;ratioP2
11777;SDS011;5946;51.770;8.548;2023-09-12T00:01:04;20.92;;;17.38;;
11777;SDS011;5946;51.770;8.548;2023-09-12T00:03:31;20.98;;;16.52;;
11777;SDS011;5946;51.770;8.548;2023-09-12T00:05:58;23.15;;;19.52;;
11777;SDS011;5946;51.770;8.548;2023-09-12T00:08:24;21.55;;;18.75;;
11777;SDS011;5946;51.770;8.548;2023-09-12T00:11:03;19.63;;;17.63;;
11777;SDS011;5946;51.770;8.548;2023-09-12T00:13:30;19.10;;;17.00;;
11777;SDS011;5946;51.770;8.548;2023-09-12T00:15:57;21.52;;;19.33;;
11777;SDS011;5946;51.770;8.548;2023-09-12T00:18:23;20.45;;;17.20;;
11777;SDS011;5946;51.770;8.548;2023-09-12T00:20:49;18.88;;;16.73;;
11777;SDS011;5946;51.770;8.548;2023-09-12T00:23:16;21.05;;;18.90;;
11777;SDS011;5946;51.770;8.548;2023-09-12T00:25:42;22.92;;;17.92;;
11777;SDS011;5946;51.770;8.548;2023-09-12T00:28:08;18.80;;;16.90;;
11777;SDS011;5946;51.770;8.548;2023-09-12T00:30:34;18.95;;;17.05;;
11777;SDS011;5946;51.770;8.548;2023-09-12T00:33:00;21.48;;;17.27;;
11777;SDS011;5946;51.770;8.548;2023-09-12T00:35:26;22.27;;;17.90;;
11777;SDS011;5946;51.770;8.548;2023-09-12T00:37:52;20.23;;;16.98;;
11777;SDS011;5946;51.770;8.548;2023-09-12T00:40:18;23.35;;;19.05;;
11777;SDS011;5946;51.770;8.548;2023-09-12T00:42:43;20.35;;;18.15;;
11777;SDS011;5946;51.770;8.548;2023-09-12T00:45:09;17.67;;;15.88;;
11777;SDS011;5946;51.770;8.548;2023-09-12T00:47:35;20.07;;;17.67;;
11777;SDS011;5946;51.770;8.548;2023-09-12T00:50:02;20.70;;;18.73;;
11777;SDS011;5946;51.770;8.548;2023-09-12T00:52:29;21.13;;;18.80;;
11777;SDS011;5946;51.770;8.548;2023-09-12T00:54:57;25.13;;;20.38;;
11777;SDS011;5946;51.770;8.548;2023-09-12T00:57:23;25.63;;;22.92;;
11777;SDS011;5946;51.770;8.548;2023-09-12T00:59:49;25.73;;;21.63;;
11777;SDS011;5946;51.770;8.548;2023-09-12T01:02:15;29.10;;;22.27;;
11777;SDS011;5946;51.770;8.548;2023-09-12T01:04:41;28.75;;;23.50;;
11777;SDS011;5946;51.770;8.548;2023-09-12T01:07:07;27.07;;;23.90;;
11777;SDS011;5946;51.770;8.548;2023-09-12T01:09:34;29.38;;;24.45;;
11777;SDS011;5946;51.770;8.548;2023-09-12T01:12:00;30.45;;;23.52;;
11777;SDS011;5946;51.770;8.548;2023-09-12T01:14:29;26.65;;;23.38;;
11777;SDS011;5946;51.770;8.548;2023-09-12T01:16:56;27.60;;;24.07;;
11777;SDS011;5946;51.770;8.548;2023-09-12T01:19:22;26.93;;;21.97;;
11777;SDS011;5946;51.770;8.548;2023-09-12T01:29:35;29.03;;;25.90;;
11777;SDS011;5946;51.770;8.548;2023-09-12T01:32:01;29.40;;;26.20;;
11777;SDS011;5946;51.770;8.548;2023-09-12T01:34:27;28.38;;;25.38;;
11777;SDS011;5946;51.770;8.548;2023-09-12T01:36:53;31.33;;;26.88;;
11777;SDS011;5946;51.770;8.548;2023-09-12T01:39:19;28.47;;;25.23;;
11777;SDS011;5946;51.770;8.548;2023-09-12T01:41:45;24.67;;;22.17;;
11777;SDS011;5946;51.770;8.548;2023-09-12T01:44:13;26.17;;;23.47;;
11777;SDS011;5946;51.770;8.548;2023-09-12T01:46:39;27.43;;;22.17;;
11777;SDS011;5946;51.770;8.548;2023-09-12T01:49:07;23.63;;;20.43;;
11777;SDS011;5946;51.770;8.548;2023-09-12T01:51:34;21.67;;;18.55;;
11777;SDS011;5946;51.770;8.548;2023-09-12T01:54:01;19.53;;;17.67;;
11777;SDS011;5946;51.770;8.548;2023-09-12T01:56:28;18.87;;;16.67;;
11777;SDS011;5946;51.770;8.548;2023-09-12T01:58:56;16.53;;;14.73;;
11777;SDS011;5946;51.770;8.548;2023-09-12T02:01:22;16.53;;;14.83;;
11777;SDS011;5946;51.770;8.548;2023-09-12T02:03:49;16.77;;;14.50;;
11777;SDS011;5946;51.770;8.548;2023-09-12T02:06:15;14.90;;;13.40;;
11777;SDS011;5946;51.770;8.548;2023-09-12T02:08:41;13.23;;;11.93;;
11777;SDS011;5946;51.770;8.548;2023-09-12T02:11:07;16.00;;;14.20;;
11777;SDS011;5946;51.770;8.548;2023-09-12T02:13:33;16.53;;;12.87;;
11777;SDS011;5946;51.770;8.548;2023-09-12T02:16:00;14.83;;;13.13;;
11777;SDS011;5946;51.770;8.548;2023-09-12T02:18:26;15.13;;;12.43;;
11777;SDS011;5946;51.770;8.548;2023-09-12T02:20:52;16.30;;;12.60;;
11777;SDS011;5946;51.770;8.548;2023-09-12T02:23:17;14.90;;;13.47;;
11777;SDS011;5946;51.770;8.548;2023-09-12T02:25:43;15.43;;;13.30;;
11777;SDS011;5946;51.770;8.548;2023-09-12T02:28:09;15.00;;;13.43;;
11777;SDS011;5946;51.770;8.548;2023-09-12T02:30:38;14.40;;;13.00;;
11777;SDS011;5946;51.770;8.548;2023-09-12T02:33:05;14.17;;;12.77;;
11777;SDS011;5946;51.770;8.548;2023-09-12T02:35:31;15.63;;;13.80;;
11777;SDS011;5946;51.770;8.548;2023-09-12T02:37:57;17.57;;;14.47;;
11777;SDS011;5946;51.770;8.548;2023-09-12T02:40:23;16.77;;;15.03;;
11777;SDS011;5946;51.770;8.548;2023-09-12T02:42:49;16.93;;;15.23;;
11777;SDS011;5946;51.770;8.548;2023-09-12T02:45:15;17.17;;;15.47;;
11777;SDS011;5946;51.770;8.548;2023-09-12T02:47:41;20.37;;;16.80;;
11777;SDS011;5946;51.770;8.548;2023-09-12T02:50:11;18.87;;;16.90;;
11777;SDS011;5946;51.770;8.548;2023-09-12T02:52:37;21.33;;;18.73;;
11777;SDS011;5946;51.770;8.548;2023-09-12T02:55:03;26.97;;;19.00;;
11777;SDS011;5946;51.770;8.548;2023-09-12T02:57:29;21.43;;;19.20;;
11777;SDS011;5946;51.770;8.548;2023-09-12T02:59:55;22.03;;;18.10;;
11777;SDS011;5946;51.770;8.548;2023-09-12T03:02:21;21.73;;;19.37;;
11777;SDS011;5946;51.770;8.548;2023-09-12T03:04:47;21.10;;;18.57;;
11777;SDS011;5946;51.770;8.548;2023-09-12T03:07:13;20.63;;;18.43;;
11777;SDS011;5946;51.770;8.548;2023-09-12T03:09:39;21.70;;;18.90;;
11777;SDS011;5946;51.770;8.548;2023-09-12T03:12:05;20.53;;;18.23;;
11777;SDS011;5946;51.770;8.548;2023-09-12T03:14:31;23.50;;;17.93;;
11777;SDS011;5946;51.770;8.548;2023-09-12T03:16:57;19.40;;;17.23;;
11777;SDS011;5946;51.770;8.548;2023-09-12T03:19:23;22.50;;;17.53;;
11777;SDS011;5946;51.770;8.548;2023-09-12T03:21:49;22.63;;;18.10;;
11777;SDS011;5946;51.770;8.548;2023-09-12T03:24:15;19.97;;;17.87;;
11777;SDS011;5946;51.770;8.548;2023-09-12T03:26:43;20.10;;;17.93;;
11777;SDS011;5946;51.770;8.548;2023-09-12T03:29:09;19.80;;;16.07;;
11777;SDS011;5946;51.770;8.548;2023-09-12T03:31:35;20.10;;;17.27;;
11777;SDS011;5946;51.770;8.548;2023-09-12T03:34:01;18.73;;;16.80;;
11777;SDS011;5946;51.770;8.548;2023-09-12T03:36:27;20.90;;;17.93;;
11777;SDS011;5946;51.770;8.548;2023-09-12T03:38:53;21.07;;;17.10;;
11777;SDS011;5946;51.770;8.548;2023-09-12T03:41:19;17.93;;;16.13;;
11777;SDS011;5946;51.770;8.548;2023-09-12T03:43:50;19.87;;;17.90;;
11777;SDS011;5946;51.770;8.548;2023-09-12T03:46:16;18.53;;;16.60;;
11777;SDS011;5946;51.770;8.548;2023-09-12T03:48:41;24.60;;;18.90;;
11777;SDS011;5946;51.770;8.548;2023-09-12T03:51:07;22.23;;;18.17;;
11777;SDS011;5946;51.770;8.548;2023-09-12T03:53:33;19.97;;;17.90;;
11777;SDS011;5946;51.770;8.548;2023-09-12T03:55:59;22.23;;;17.97;;
11777;SDS011;5946;51.770;8.548;2023-09-12T03:58:25;21.83;;;17.83;;
11777;SDS011;5946;51.770;8.548;2023-09-12T04:00:51;22.97;;;18.47;;
11777;SDS011;5946;51.770;8.548;2023-09-12T04:03:17;20.63;;;18.07;;
11777;SDS011;5946;51.770;8.548;2023-09-12T04:05:46;25.67;;;19.27;;
11777;SDS011;5946;51.770;8.548;2023-09-12T04:08:12;20.97;;;16.93;;
11777;SDS011;5946;51.770;8.548;2023-09-12T04:10:38;21.00;;;17.77;;
11777;SDS011;5946;51.770;8.548;2023-09-12T04:13:04;22.37;;;18.50;;
11777;SDS011;5946;51.770;8.548;2023-09-12T04:15:30;19.57;;;17.47;;
11777;SDS011;5946;51.770;8.548;2023-09-12T04:17:56;20.23;;;18.07;;
11777;SDS011;5946;51.770;8.548;2023-09-12T04:20:22;19.53;;;17.00;;
11777;SDS011;5946;51.770;8.548;2023-09-12T04:22:48;18.03;;;16.20;;
11777;SDS011;5946;51.770;8.548;2023-09-12T04:25:14;18.47;;;15.60;;
11777;SDS011;5946;51.770;8.548;2023-09-12T04:27:41;20.10;;;17.53;;
11777;SDS011;5946;51.770;8.548;2023-09-12T04:30:07;23.63;;;19.30;;
11777;SDS011;5946;51.770;8.548;2023-09-12T04:32:33;21.47;;;19.13;;
11777;SDS011;5946;51.770;8.548;2023-09-12T04:35:00;19.77;;;17.63;;
11777;SDS011;5946;51.770;8.548;2023-09-12T04:37:26;20.10;;;17.87;;
11777;SDS011;5946;51.770;8.548;2023-09-12T04:39:52;22.13;;;19.60;;
11777;SDS011;5946;51.770;8.548;2023-09-12T04:42:18;23.97;;;19.80;;
11777;SDS011;5946;51.770;8.548;2023-09-12T04:44:44;24.13;;;18.93;;
11777;SDS011;5946;51.770;8.548;2023-09-12T04:47:10;20.37;;;17.87;;
11777;SDS011;5946;51.770;8.548;2023-09-12T04:49:36;19.10;;;17.10;;
11777;SDS011;5946;51.770;8.548;2023-09-12T04:52:02;18.73;;;16.67;;
11777;SDS011;5946;51.770;8.548;2023-09-12T04:54:28;19.60;;;16.10;;
11777;SDS011;5946;51.770;8.548;2023-09-12T04:56:54;18.33;;;16.53;;
11777;SDS011;5946;51.770;8.548;2023-09-12T04:59:20;20.87;;;17.50;;
11777;SDS011;5946;51.770;8.548;2023-09-12T05:01:46;19.40;;;17.30;;
11777;SDS011;5946;51.770;8.548;2023-09-12T05:04:12;19.50;;;17.40;;
11777;SDS011;5946;51.770;8.548;2023-09-12T05:06:38;23.13;;;16.57;;
11777;SDS011;5946;51.770;8.548;2023-09-12T05:09:05;22.17;;;16.93;;
11777;SDS011;5946;51.770;8.548;2023-09-12T05:11:33;20.30;;;17.17;;
11777;SDS011;5946;51.770;8.548;2023-09-12T05:13:59;20.03;;;17.10;;
11777;SDS011;5946;51.770;8.548;2023-09-12T05:16:28;20.53;;;17.37;;
11777;SDS011;5946;51.770;8.548;2023-09-12T05:18:54;19.03;;;15.97;;
11777;SDS011;5946;51.770;8.548;2023-09-12T05:21:20;21.60;;;17.60;;
11777;SDS011;5946;51.770;8.548;2023-09-12T05:23:46;23.23;;;15.68;;
11777;SDS011;5946;51.770;8.548;2023-09-12T05:26:12;21.58;;;17.40;;
11777;SDS011;5946;51.770;8.548;2023-09-12T05:28:38;18.45;;;15.40;;
11777;SDS011;5946;51.770;8.548;2023-09-12T05:31:04;19.75;;;16.02;;
11777;SDS011;5946;51.770;8.548;2023-09-12T05:33:30;17.55;;;15.25;;
11777;SDS011;5946;51.770;8.548;2023-09-12T05:35:56;16.23;;;14.10;;
11777;SDS011;5946;51.770;8.548;2023-09-12T05:38:22;17.90;;;15.38;;
11777;SDS011;5946;51.770;8.548;2023-09-12T05:40:48;21.80;;;14.80;;
11777;SDS011;5946;51.770;8.548;2023-09-12T05:43:15;16.38;;;13.13;;
11777;SDS011;5946;51.770;8.548;2023-09-12T05:45:41;15.27;;;13.77;;
11777;SDS011;5946;51.770;8.548;2023-09-12T05:48:07;18.27;;;13.95;;
11777;SDS011;5946;51.770;8.548;2023-09-12T05:50:34;17.85;;;13.35;;
11777;SDS011;5946;51.770;8.548;2023-09-12T05:53:01;15.05;;;13.48;;
11777;SDS011;5946;51.770;8.548;2023-09-12T05:55:27;15.13;;;13.52;;
11777;SDS011;5946;51.770;8.548;2023-09-12T05:57:53;16.70;;;14.23;;
11777;SDS011;5946;51.770;8.548;2023-09-12T06:00:20;15.77;;;13.55;;
11777;SDS011;5946;51.770;8.548;2023-09-12T06:02:47;15.20;;;12.95;;
11777;SDS011;5946;51.770;8.548;2023-09-12T06:05:13;14.05;;;12.50;;
11777;SDS011;5946;51.770;8.548;2023-09-12T06:07:39;13.75;;;12.20;;
11777;SDS011;5946;51.770;8.548;2023-09-12T06:10:05;13.82;;;12.43;;
11777;SDS011;5946;51.770;8.548;2023-09-12T06:12:32;13.40;;;11.88;;
11777;SDS011;5946;51.770;8.548;2023-09-12T06:14:58;13.48;;;11.85;;
11777;SDS011;5946;51.770;8.548;2023-09-12T06:17:24;14.48;;;11.23;;
11777;SDS011;5946;51.770;8.548;2023-09-12T06:19:50;12.48;;;11.18;;
11777;SDS011;5946;51.770;8.548;2023-09-12T06:22:16;12.75;;;11.43;;
11777;SDS011;5946;51.770;8.548;2023-09-12T06:24:42;11.98;;;10.77;;
11777;SDS011;5946;51.770;8.548;2023-09-12T06:27:08;13.00;;;11.70;;
11777;SDS011;5946;51.770;8.548;2023-09-12T06:29:37;13.10;;;11.80;;
11777;SDS011;5946;51.770;8.548;2023-09-12T06:32:03;12.48;;;10.82;;
11777;SDS011;5946;51.770;8.548;2023-09-12T06:34:29;11.65;;;10.45;;
11777;SDS011;5946;51.770;8.548;2023-09-12T06:36:55;13.85;;;10.68;;
11777;SDS011;5946;51.770;8.548;2023-09-12T06:39:21;11.30;;;10.18;;
11777;SDS011;5946;51.770;8.548;2023-09-12T06:41:49;15.63;;;11.20;;
11777;SDS011;5946;51.770;8.548;2023-09-12T06:44:15;11.23;;;9.55;;
11777;SDS011;5946;51.770;8.548;2023-09-12T06:46:41;11.40;;;9.38;;
11777;SDS011;5946;51.770;8.548;2023-09-12T06:49:07;10.63;;;9.50;;
11777;SDS011;5946;51.770;8.548;2023-09-12T06:51:33;13.27;;;9.30;;
11777;SDS011;5946;51.770;8.548;2023-09-12T06:53:59;10.30;;;9.27;;
11777;SDS011;5946;51.770;8.548;2023-09-12T06:56:25;13.80;;;9.60;;
11777;SDS011;5946;51.770;8.548;2023-09-12T06:58:52;12.30;;;8.00;;
11777;SDS011;5946;51.770;8.548;2023-09-12T07:01:20;11.07;;;8.52;;
11777;SDS011;5946;51.770;8.548;2023-09-12T07:03:46;9.02;;;6.97;;
11777;SDS011;5946;51.770;8.548;2023-09-12T07:06:12;8.85;;;7.80;;
11777;SDS011;5946;51.770;8.548;2023-09-12T07:08:38;8.70;;;7.32;;
11777;SDS011;5946;51.770;8.548;2023-09-12T07:11:05;9.07;;;6.80;;
11777;SDS011;5946;51.770;8.548;2023-09-12T07:13:34;7.55;;;6.85;;
11777;SDS011;5946;51.770;8.548;2023-09-12T07:16:00;7.35;;;6.45;;
11777;SDS011;5946;51.770;8.548;2023-09-12T07:18:29;9.68;;;7.03;;
11777;SDS011;5946;51.770;8.548;2023-09-12T07:20:58;9.00;;;6.20;;
11777;SDS011;5946;51.770;8.548;2023-09-12T07:23:23;9.25;;;8.00;;
11777;SDS011;5946;51.770;8.548;2023-09-12T07:25:49;10.27;;;8.77;;
11777;SDS011;5946;51.770;8.548;2023-09-12T07:28:15;12.02;;;8.45;;
11777;SDS011;5946;51.770;8.548;2023-09-12T07:30:45;9.25;;;8.32;;
11777;SDS011;5946;51.770;8.548;2023-09-12T07:33:11;13.85;;;11.68;;
11777;SDS011;5946;51.770;8.548;2023-09-12T07:35:37;15.88;;;13.90;;
11777;SDS011;5946;51.770;8.548;2023-09-12T07:38:03;20.55;;;16.33;;
11777;SDS011;5946;51.770;8.548;2023-09-12T07:40:29;15.90;;;13.23;;
11777;SDS011;5946;51.770;8.548;2023-09-12T07:42:55;17.10;;;15.20;;
11777;SDS011;5946;51.770;8.548;2023-09-12T07:45:21;18.05;;;15.23;;
11777;SDS011;5946;51.770;8.548;2023-09-12T07:47:47;20.33;;;15.77;;
11777;SDS011;5946;51.770;8.548;2023-09-12T07:50:13;16.33;;;14.60;;
11777;SDS011;5946;51.770;8.548;2023-09-12T07:52:39;17.65;;;15.70;;
11777;SDS011;5946;51.770;8.548;2023-09-12T07:55:06;22.77;;;16.98;;
11777;SDS011;5946;51.770;8.548;2023-09-12T07:57:32;18.50;;;14.93;;
11777;SDS011;5946;51.770;8.548;2023-09-12T07:59:59;19.35;;;14.75;;
11777;SDS011;5946;51.770;8.548;2023-09-12T08:02:25;19.05;;;14.95;;
11777;SDS011;5946;51.770;8.548;2023-09-12T08:04:51;22.55;;;15.85;;
11777;SDS011;5946;51.770;8.548;2023-09-12T08:07:18;19.75;;;15.73;;
11777;SDS011;5946;51.770;8.548;2023-09-12T08:12:13;16.63;;;14.90;;
11777;SDS011;5946;51.770;8.548;2023-09-12T08:14:39;17.05;;;13.73;;
11777;SDS011;5946;51.770;8.548;2023-09-12T08:17:05;13.68;;;11.63;;
11777;SDS011;5946;51.770;8.548;2023-09-12T08:19:31;11.25;;;10.10;;
11777;SDS011;5946;51.770;8.548;2023-09-12T08:21:57;13.55;;;10.60;;
11777;SDS011;5946;51.770;8.548;2023-09-12T08:24:23;11.18;;;10.07;;
11777;SDS011;5946;51.770;8.548;2023-09-12T08:26:49;12.43;;;9.65;;
11777;SDS011;5946;51.770;8.548;2023-09-12T08:29:15;14.10;;;10.40;;
11777;SDS011;5946;51.770;8.548;2023-09-12T08:31:41;12.02;;;10.77;;
11777;SDS011;5946;51.770;8.548;2023-09-12T08:34:09;12.63;;;11.32;;
11777;SDS011;5946;51.770;8.548;2023-09-12T08:36:35;14.20;;;11.93;;
11777;SDS011;5946;51.770;8.548;2023-09-12T08:39:01;18.90;;;11.45;;
11777;SDS011;5946;51.770;8.548;2023-09-12T08:41:28;13.30;;;10.52;;
11777;SDS011;5946;51.770;8.548;2023-09-12T08:43:54;14.23;;;10.30;;
11777;SDS011;5946;51.770;8.548;2023-09-12T08:46:21;15.05;;;9.95;;
11777;SDS011;5946;51.770;8.548;2023-09-12T08:48:49;10.95;;;9.82;;
11777;SDS011;5946;51.770;8.548;2023-09-12T08:51:15;11.07;;;8.97;;
11777;SDS011;5946;51.770;8.548;2023-09-12T08:53:41;12.73;;;10.90;;
11777;SDS011;5946;51.770;8.548;2023-09-12T08:56:07;11.77;;;10.53;;
11777;SDS011;5946;51.770;8.548;2023-09-12T08:58:35;11.73;;;10.53;;
11777;SDS011;5946;51.770;8.548;2023-09-12T09:01:01;11.93;;;10.67;;
11777;SDS011;5946;51.770;8.548;2023-09-12T09:03:28;13.33;;;11.77;;
11777;SDS011;5946;51.770;8.548;2023-09-12T09:05:54;12.20;;;10.57;;
11777;SDS011;5946;51.770;8.548;2023-09-12T09:08:21;12.53;;;11.23;;
11777;SDS011;5946;51.770;8.548;2023-09-12T09:10:57;13.50;;;12.00;;
11777;SDS011;5946;51.770;8.548;2023-09-12T09:13:24;16.57;;;12.97;;
11777;SDS011;5946;51.770;8.548;2023-09-12T09:16:08;14.40;;;12.90;;
11777;SDS011;5946;51.770;8.548;2023-09-12T09:18:57;15.83;;;13.27;;
11777;SDS011;5946;51.770;8.548;2023-09-12T09:21:25;17.40;;;13.40;;
11777;SDS011;5946;51.770;8.548;2023-09-12T09:23:52;13.23;;;11.93;;
11777;SDS011;5946;51.770;8.548;2023-09-12T09:26:19;15.07;;;12.43;;
11777;SDS011;5946;51.770;8.548;2023-09-12T09:28:45;12.57;;;11.10;;
11777;SDS011;5946;51.770;8.548;2023-09-12T09:31:12;15.57;;;10.80;;
11777;SDS011;5946;51.770;8.548;2023-09-12T09:33:42;12.88;;;9.82;;
11777;SDS011;5946;51.770;8.548;2023-09-12T09:36:14;10.65;;;9.57;;
11777;SDS011;5946;51.770;8.548;2023-09-12T09:38:40;10.60;;;9.43;;
11777;SDS011;5946;51.770;8.548;2023-09-12T09:41:06;9.57;;;8.68;;
11777;SDS011;5946;51.770;8.548;2023-09-12T09:43:33;7.00;;;6.35;;
11777;SDS011;5946;51.770;8.548;2023-09-12T09:45:59;6.25;;;5.65;;
11777;SDS011;5946;51.770;8.548;2023-09-12T09:48:25;5.43;;;5.03;;
11777;SDS011;5946;51.770;8.548;2023-09-12T09:51:01;6.35;;;5.75;;
11777;SDS011;5946;51.770;8.548;2023-09-12T09:53:28;5.90;;;5.03;;
11777;SDS011;5946;51.770;8.548;2023-09-12T09:56:07;5.75;;;5.03;;
11777;SDS011;5946;51.770;8.548;2023-09-12T09:58:34;6.47;;;5.03;;
11777;SDS011;5946;51.770;8.548;2023-09-12T10:01:01;8.80;;;4.63;;
11777;SDS011;5946;51.770;8.548;2023-09-12T10:03:28;6.30;;;5.70;;
11777;SDS011;5946;51.770;8.548;2023-09-12T10:05:55;5.95;;;5.35;;
11777;SDS011;5946;51.770;8.548;2023-09-12T10:08:23;6.32;;;5.10;;
11777;SDS011;5946;51.770;8.548;2023-09-12T10:10:49;7.50;;;5.60;;
11777;SDS011;5946;51.770;8.548;2023-09-12T10:13:16;6.57;;;5.72;;
11777;SDS011;5946;51.770;8.548;2023-09-12T10:15:42;8.55;;;7.05;;
11777;SDS011;5946;51.770;8.548;2023-09-12T10:18:09;8.52;;;7.28;;
11777;SDS011;5946;51.770;8.548;2023-09-12T10:20:37;8.85;;;7.30;;
11777;SDS011;5946;51.770;8.548;2023-09-12T10:23:07;9.00;;;8.13;;
11777;SDS011;5946;51.770;8.548;2023-09-12T10:25:36;9.45;;;8.45;;
11777;SDS011;5946;51.770;8.548;2023-09-12T10:28:03;8.15;;;7.45;;
11777;SDS011;5946;51.770;8.548;2023-09-12T10:30:30;11.43;;;8.07;;
11777;SDS011;5946;51.770;8.548;2023-09-12T10:32:57;17.30;;;10.17;;
11777;SDS011;5946;51.770;8.548;2023-09-12T10:35:23;13.57;;;10.23;;
11777;SDS011;5946;51.770;8.548;2023-09-12T10:37:49;11.37;;;8.97;;
11777;SDS011;5946;51.770;8.548;2023-09-12T10:40:16;11.25;;;8.70;;
11777;SDS011;5946;51.770;8.548;2023-09-12T10:42:43;10.70;;;9.17;;
11777;SDS011;5946;51.770;8.548;2023-09-12T10:45:10;10.30;;;9.30;;
11777;SDS011;5946;51.770;8.548;2023-09-12T10:47:36;11.57;;;9.73;;
11777;SDS011;5946;51.770;8.548;2023-09-12T10:50:03;14.87;;;10.27;;
11777;SDS011;5946;51.770;8.548;2023-09-12T10:52:29;14.50;;;11.47;;
11777;SDS011;5946;51.770;8.548;2023-09-12T10:54:56;12.47;;;10.40;;
11777;SDS011;5946;51.770;8.548;2023-09-12T10:57:22;23.77;;;11.90;;
11777;SDS011;5946;51.770;8.548;2023-09-12T11:02:33;18.87;;;11.63;;
11777;SDS011;5946;51.770;8.548;2023-09-12T11:04:59;16.40;;;10.57;;
11777;SDS011;5946;51.770;8.548;2023-09-12T11:12:36;11.57;;;8.43;;
11777;SDS011;5946;51.770;8.548;2023-09-12T11:15:05;13.00;;;9.20;;
11777;SDS011;5946;51.770;8.548;2023-09-12T11:17:37;11.03;;;8.93;;
11777;SDS011;5946;51.770;8.548;2023-09-12T11:20:05;13.87;;;8.57;;
11777;SDS011;5946;51.770;8.548;2023-09-12T11:22:39;11.40;;;8.53;;
11777;SDS011;5946;51.770;8.548;2023-09-12T11:25:15;13.37;;;8.57;;
11777;SDS011;5946;51.770;8.548;2023-09-12T11:30:10;8.67;;;7.73;;
11777;SDS011;5946;51.770;8.548;2023-09-12T11:32:37;9.07;;;6.95;;
11777;SDS011;5946;51.770;8.548;2023-09-12T11:35:06;7.60;;;6.85;;
11777;SDS011;5946;51.770;8.548;2023-09-12T11:37:33;7.55;;;6.63;;
11777;SDS011;5946;51.770;8.548;2023-09-12T11:40:02;8.60;;;5.70;;
11777;SDS011;5946;51.770;8.548;2023-09-12T11:42:28;7.35;;;5.40;;
11777;SDS011;5946;51.770;8.548;2023-09-12T11:44:54;7.85;;;4.82;;
11777;SDS011;5946;51.770;8.548;2023-09-12T11:47:20;5.85;;;4.80;;
11777;SDS011;5946;51.770;8.548;2023-09-12T11:49:47;4.45;;;3.80;;
11777;SDS011;5946;51.770;8.548;2023-09-12T11:52:13;3.90;;;3.45;;
11777;SDS011;5946;51.770;8.548;2023-09-12T11:54:41;5.82;;;3.20;;
11777;SDS011;5946;51.770;8.548;2023-09-12T11:57:10;3.38;;;2.85;;
11777;SDS011;5946;51.770;8.548;2023-09-12T11:59:39;3.10;;;2.72;;
11777;SDS011;5946;51.770;8.548;2023-09-12T12:02:08;2.67;;;2.45;;
11777;SDS011;5946;51.770;8.548;2023-09-12T12:04:35;2.70;;;2.47;;
11777;SDS011;5946;51.770;8.548;2023-09-12T12:07:02;3.85;;;2.72;;
11777;SDS011;5946;51.770;8.548;2023-09-12T12:09:31;2.50;;;2.30;;
11777;SDS011;5946;51.770;8.548;2023-09-12T12:12:31;4.30;;;2.17;;
11777;SDS011;5946;51.770;8.548;2023-09-12T12:14:50;2.45;;;2.20;;
11777;SDS011;5946;51.770;8.548;2023-09-12T12:17:16;2.38;;;2.28;;
11777;SDS011;5946;51.770;8.548;2023-09-12T12:19:44;2.60;;;2.38;;
11777;SDS011;5946;51.770;8.548;2023-09-12T12:22:11;2.78;;;2.53;;
11777;SDS011;5946;51.770;8.548;2023-09-12T12:24:37;2.20;;;2.10;;
11777;SDS011;5946;51.770;8.548;2023-09-12T12:27:03;2.40;;;2.20;;
11777;SDS011;5946;51.770;8.548;2023-09-12T12:29:30;2.80;;;2.33;;
11777;SDS011;5946;51.770;8.548;2023-09-12T12:32:01;2.72;;;2.30;;
11777;SDS011;5946;51.770;8.548;2023-09-12T12:34:27;2.80;;;2.58;;
11777;SDS011;5946;51.770;8.548;2023-09-12T12:36:54;2.90;;;2.60;;
11777;SDS011;5946;51.770;8.548;2023-09-12T12:39:20;2.80;;;2.60;;
11777;SDS011;5946;51.770;8.548;2023-09-12T12:41:47;2.80;;;2.60;;
11777;SDS011;5946;51.770;8.548;2023-09-12T12:44:13;3.15;;;2.95;;
11777;SDS011;5946;51.770;8.548;2023-09-12T12:46:53;2.85;;;2.50;;
11777;SDS011;5946;51.770;8.548;2023-09-12T12:49:20;2.95;;;2.70;;
11777;SDS011;5946;51.770;8.548;2023-09-12T12:51:46;2.10;;;2.00;;
11777;SDS011;5946;51.770;8.548;2023-09-12T12:54:13;5.13;;;2.58;;
11777;SDS011;5946;51.770;8.548;2023-09-12T12:56:39;3.95;;;2.30;;
11777;SDS011;5946;51.770;8.548;2023-09-12T12:59:06;2.10;;;2.00;;
11777;SDS011;5946;51.770;8.548;2023-09-12T13:01:36;2.33;;;2.13;;
11777;SDS011;5946;51.770;8.548;2023-09-12T13:04:06;3.45;;;2.30;;
11777;SDS011;5946;51.770;8.548;2023-09-12T13:06:32;2.53;;;2.30;;
11777;SDS011;5946;51.770;8.548;2023-09-12T13:09:01;3.25;;;2.50;;
11777;SDS011;5946;51.770;8.548;2023-09-12T13:11:29;3.83;;;2.45;;
11777;SDS011;5946;51.770;8.548;2023-09-12T13:13:56;4.53;;;2.78;;
11777;SDS011;5946;51.770;8.548;2023-09-12T13:16:22;2.65;;;2.47;;
11777;SDS011;5946;51.770;8.548;2023-09-12T13:18:48;3.03;;;2.80;;
11777;SDS011;5946;51.770;8.548;2023-09-12T13:21:14;2.88;;;2.67;;
11777;SDS011;5946;51.770;8.548;2023-09-12T13:23:40;3.00;;;2.60;;
11777;SDS011;5946;51.770;8.548;2023-09-12T13:26:06;2.90;;;2.67;;
11777;SDS011;5946;51.770;8.548;2023-09-12T13:28:33;4.45;;;3.00;;
11777;SDS011;5946;51.770;8.548;2023-09-12T13:30:59;3.75;;;3.30;;
11777;SDS011;5946;51.770;8.548;2023-09-12T13:33:25;3.00;;;2.80;;
11777;SDS011;5946;51.770;8.548;2023-09-12T13:35:51;3.25;;;3.00;;
11777;SDS011;5946;51.770;8.548;2023-09-12T13:38:17;3.33;;;3.03;;
11777;SDS011;5946;51.770;8.548;2023-09-12T13:40:45;6.25;;;3.55;;
11777;SDS011;5946;51.770;8.548;2023-09-12T13:43:11;3.50;;;3.20;;
11777;SDS011;5946;51.770;8.548;2023-09-12T13:45:37;4.15;;;3.78;;
11777;SDS011;5946;51.770;8.548;2023-09-12T13:48:03;9.40;;;4.20;;
11777;SDS011;5946;51.770;8.548;2023-09-12T13:50:30;4.47;;;4.07;;
11777;SDS011;5946;51.770;8.548;2023-09-12T13:52:57;4.32;;;3.92;;
11777;SDS011;5946;51.770;8.548;2023-09-12T13:55:32;5.30;;;3.90;;
11777;SDS011;5946;51.770;8.548;2023-09-12T13:57:58;4.00;;;3.65;;
11777;SDS011;5946;51.770;8.548;2023-09-12T14:00:24;6.10;;;4.00;;
11777;SDS011;5946;51.770;8.548;2023-09-12T14:02:50;4.18;;;3.47;;
11777;SDS011;5946;51.770;8.548;2023-09-12T14:05:16;3.30;;;3.00;;
11777;SDS011;5946;51.770;8.548;2023-09-12T14:07:43;3.50;;;3.20;;
11777;SDS011;5946;51.770;8.548;2023-09-12T14:10:09;3.25;;;2.90;;
11777;SDS011;5946;51.770;8.548;2023-09-12T14:12:35;3.35;;;3.10;;
11777;SDS011;5946;51.770;8.548;2023-09-12T14:15:01;4.05;;;3.20;;
11777;SDS011;5946;51.770;8.548;2023-09-12T14:17:28;3.03;;;2.60;;
11777;SDS011;5946;51.770;8.548;2023-09-12T14:19:54;4.03;;;3.67;;
11777;SDS011;5946;51.770;8.548;2023-09-12T14:22:20;3.25;;;2.97;;
11777;SDS011;5946;51.770;8.548;2023-09-12T14:24:47;5.90;;;3.20;;
11777;SDS011;5946;51.770;8.548;2023-09-12T14:27:13;4.28;;;3.30;;
11777;SDS011;5946;51.770;8.548;2023-09-12T14:29:39;3.65;;;3.35;;
11777;SDS011;5946;51.770;8.548;2023-09-12T14:32:05;3.70;;;2.88;;
11777;SDS011;5946;51.770;8.548;2023-09-12T14:34:31;3.42;;;3.00;;
11777;SDS011;5946;51.770;8.548;2023-09-12T14:36:58;5.05;;;2.83;;
11777;SDS011;5946;51.770;8.548;2023-09-12T14:39:24;4.55;;;3.00;;
11777;SDS011;5946;51.770;8.548;2023-09-12T14:41:51;3.45;;;3.15;;
11777;SDS011;5946;51.770;8.548;2023-09-12T14:44:17;3.42;;;3.17;;
11777;SDS011;5946;51.770;8.548;2023-09-12T14:46:44;3.53;;;3.10;;
11777;SDS011;5946;51.770;8.548;2023-09-12T14:49:10;3.33;;;2.95;;
11777;SDS011;5946;51.770;8.548;2023-09-12T14:51:36;5.28;;;3.38;;
11777;SDS011;5946;51.770;8.548;2023-09-12T14:54:02;3.75;;;3.22;;
11777;SDS011;5946;51.770;8.548;2023-09-12T14:56:28;3.40;;;3.10;;
11777;SDS011;5946;51.770;8.548;2023-09-12T14:58:54;3.63;;;3.28;;
11777;SDS011;5946;51.770;8.548;2023-09-12T15:01:20;3.58;;;3.08;;